sensor_id;sensor_type;location;lat;lon;timestamp;P1;durP1;ratioP1;P2;durP2;ratioP2
36211;SDS011;22247;48.586;13.492;2023-05-24T00:03:51;9.60;;;5.22;;
36211;SDS011;22247;48.586;13.492;2023-05-24T00:06:17;9.50;;;5.60;;
36211;SDS011;22247;48.586;13.492;2023-05-24T00:08:42;8.13;;;5.50;;
36211;SDS011;22247;48.586;13.492;2023-05-24T00:13:31;7.10;;;4.88;;
36211;SDS011;22247;48.586;13.492;2023-05-24T00:18:25;8.80;;;5.40;;
36211;SDS011;22247;48.586;13.492;2023-05-24T00:20:49;7.68;;;5.28;;
36211;SDS011;22247;48.586;13.492;2023-05-24T00:23:14;7.40;;;4.90;;
36211;SDS011;22247;48.586;13.492;2023-05-24T00:28:04;9.65;;;5.47;;
36211;SDS011;22247;48.586;13.492;2023-05-24T00:32:53;8.25;;;5.15;;
36211;SDS011;22247;48.586;13.492;2023-05-24T00:37:42;9.43;;;5.50;;
36211;SDS011;22247;48.586;13.492;2023-05-24T00:40:08;8.88;;;5.07;;
36211;SDS011;22247;48.586;13.492;2023-05-24T00:44:57;11.75;;;5.88;;
36211;SDS011;22247;48.586;13.492;2023-05-24T00:47:22;9.10;;;6.00;;
36211;SDS011;22247;48.586;13.492;2023-05-24T00:52:11;9.77;;;6.15;;
36211;SDS011;22247;48.586;13.492;2023-05-24T00:57:01;7.53;;;5.28;;
36211;SDS011;22247;48.586;13.492;2023-05-24T00:59:26;9.02;;;5.40;;
36211;SDS011;22247;48.586;13.492;2023-05-24T01:01:51;10.32;;;5.35;;
36211;SDS011;22247;48.586;13.492;2023-05-24T01:04:18;7.22;;;5.35;;
36211;SDS011;22247;48.586;13.492;2023-05-24T01:09:32;7.65;;;5.07;;
36211;SDS011;22247;48.586;13.492;2023-05-24T01:17:32;6.77;;;5.10;;
36211;SDS011;22247;48.586;13.492;2023-05-24T01:20:24;8.95;;;5.60;;
36211;SDS011;22247;48.586;13.492;2023-05-24T01:28:00;8.77;;;5.70;;
36211;SDS011;22247;48.586;13.492;2023-05-24T01:30:27;8.98;;;5.50;;
36211;SDS011;22247;48.586;13.492;2023-05-24T01:32:52;7.20;;;4.68;;
36211;SDS011;22247;48.586;13.492;2023-05-24T01:37:41;6.63;;;4.90;;
36211;SDS011;22247;48.586;13.492;2023-05-24T01:42:55;9.20;;;4.85;;
36211;SDS011;22247;48.586;13.492;2023-05-24T01:45:22;8.07;;;4.88;;
36211;SDS011;22247;48.586;13.492;2023-05-24T01:53:12;7.68;;;5.60;;
36211;SDS011;22247;48.586;13.492;2023-05-24T01:55:38;9.35;;;5.80;;
36211;SDS011;22247;48.586;13.492;2023-05-24T01:58:04;11.90;;;5.85;;
36211;SDS011;22247;48.586;13.492;2023-05-24T02:00:32;7.93;;;5.53;;
36211;SDS011;22247;48.586;13.492;2023-05-24T02:02:57;7.70;;;5.28;;
36211;SDS011;22247;48.586;13.492;2023-05-24T02:07:47;9.18;;;5.32;;
36211;SDS011;22247;48.586;13.492;2023-05-24T02:12:36;7.57;;;5.20;;
36211;SDS011;22247;48.586;13.492;2023-05-24T02:17:27;10.02;;;5.40;;
36211;SDS011;22247;48.586;13.492;2023-05-24T02:19:55;6.90;;;4.95;;
36211;SDS011;22247;48.586;13.492;2023-05-24T02:22:22;7.72;;;6.00;;
36211;SDS011;22247;48.586;13.492;2023-05-24T02:27:13;7.28;;;5.57;;
36211;SDS011;22247;48.586;13.492;2023-05-24T02:32:04;7.22;;;5.28;;
36211;SDS011;22247;48.586;13.492;2023-05-24T02:36:58;8.68;;;5.10;;
36211;SDS011;22247;48.586;13.492;2023-05-24T02:39:23;8.02;;;5.50;;
36211;SDS011;22247;48.586;13.492;2023-05-24T02:44:12;11.20;;;5.65;;
36211;SDS011;22247;48.586;13.492;2023-05-24T02:49:03;11.35;;;6.22;;
36211;SDS011;22247;48.586;13.492;2023-05-24T02:51:30;9.52;;;5.93;;
36211;SDS011;22247;48.586;13.492;2023-05-24T02:53:55;8.50;;;6.10;;
36211;SDS011;22247;48.586;13.492;2023-05-24T02:58:44;9.05;;;5.88;;
36211;SDS011;22247;48.586;13.492;2023-05-24T03:03:35;8.85;;;6.05;;
36211;SDS011;22247;48.586;13.492;2023-05-24T03:06:02;8.05;;;6.28;;
36211;SDS011;22247;48.586;13.492;2023-05-24T03:08:29;9.55;;;5.93;;
36211;SDS011;22247;48.586;13.492;2023-05-24T03:13:18;9.00;;;5.40;;
36211;SDS011;22247;48.586;13.492;2023-05-24T03:18:08;7.60;;;5.38;;
36211;SDS011;22247;48.586;13.492;2023-05-24T03:22:59;8.30;;;5.90;;
36211;SDS011;22247;48.586;13.492;2023-05-24T03:30:14;7.47;;;5.70;;
36211;SDS011;22247;48.586;13.492;2023-05-24T03:35:03;9.65;;;5.95;;
36211;SDS011;22247;48.586;13.492;2023-05-24T03:37:29;8.13;;;5.35;;
36211;SDS011;22247;48.586;13.492;2023-05-24T03:39:58;9.35;;;5.25;;
36211;SDS011;22247;48.586;13.492;2023-05-24T03:44:47;7.25;;;5.00;;
36211;SDS011;22247;48.586;13.492;2023-05-24T03:49:36;8.70;;;4.93;;
36211;SDS011;22247;48.586;13.492;2023-05-24T03:54:26;8.02;;;4.75;;
36211;SDS011;22247;48.586;13.492;2023-05-24T03:59:16;8.13;;;5.63;;
36211;SDS011;22247;48.586;13.492;2023-05-24T04:04:05;7.20;;;5.32;;
36211;SDS011;22247;48.586;13.492;2023-05-24T04:06:32;9.77;;;6.63;;
36211;SDS011;22247;48.586;13.492;2023-05-24T04:08:59;7.55;;;5.95;;
36211;SDS011;22247;48.586;13.492;2023-05-24T04:11:24;8.35;;;5.85;;
36211;SDS011;22247;48.586;13.492;2023-05-24T04:13:52;8.40;;;5.97;;
36211;SDS011;22247;48.586;13.492;2023-05-24T04:16:18;9.95;;;5.50;;
36211;SDS011;22247;48.586;13.492;2023-05-24T04:18:44;8.23;;;5.05;;
36211;SDS011;22247;48.586;13.492;2023-05-24T04:21:11;6.20;;;4.85;;
36211;SDS011;22247;48.586;13.492;2023-05-24T04:23:36;6.63;;;5.10;;
36211;SDS011;22247;48.586;13.492;2023-05-24T04:26:03;6.10;;;4.75;;
36211;SDS011;22247;48.586;13.492;2023-05-24T04:30:52;7.05;;;4.70;;
36211;SDS011;22247;48.586;13.492;2023-05-24T04:33:17;10.18;;;5.30;;
36211;SDS011;22247;48.586;13.492;2023-05-24T04:38:12;5.95;;;4.38;;
36211;SDS011;22247;48.586;13.492;2023-05-24T04:43:01;6.20;;;4.05;;
36211;SDS011;22247;48.586;13.492;2023-05-24T04:47:50;8.15;;;4.38;;
36211;SDS011;22247;48.586;13.492;2023-05-24T04:52:40;6.47;;;3.83;;
36211;SDS011;22247;48.586;13.492;2023-05-24T04:57:29;5.45;;;4.15;;
36211;SDS011;22247;48.586;13.492;2023-05-24T04:59:56;6.78;;;4.07;;
36211;SDS011;22247;48.586;13.492;2023-05-24T05:02:25;6.13;;;4.30;;
36211;SDS011;22247;48.586;13.492;2023-05-24T05:07:14;6.60;;;4.00;;
36211;SDS011;22247;48.586;13.492;2023-05-24T05:09:39;4.97;;;3.22;;
36211;SDS011;22247;48.586;13.492;2023-05-24T05:12:06;4.00;;;3.20;;
36211;SDS011;22247;48.586;13.492;2023-05-24T05:16:55;4.70;;;3.13;;
36211;SDS011;22247;48.586;13.492;2023-05-24T05:19:20;4.75;;;3.53;;
36211;SDS011;22247;48.586;13.492;2023-05-24T05:21:47;5.22;;;3.13;;
36211;SDS011;22247;48.586;13.492;2023-05-24T05:29:02;4.83;;;3.00;;
36211;SDS011;22247;48.586;13.492;2023-05-24T05:31:29;3.75;;;2.63;;
36211;SDS011;22247;48.586;13.492;2023-05-24T05:36:18;7.10;;;3.00;;
36211;SDS011;22247;48.586;13.492;2023-05-24T05:41:08;5.45;;;2.60;;
36211;SDS011;22247;48.586;13.492;2023-05-24T05:43:32;3.17;;;2.33;;
36211;SDS011;22247;48.586;13.492;2023-05-24T05:48:24;3.72;;;2.55;;
36211;SDS011;22247;48.586;13.492;2023-05-24T05:50:49;3.08;;;2.67;;
36211;SDS011;22247;48.586;13.492;2023-05-24T05:55:38;3.88;;;2.55;;
36211;SDS011;22247;48.586;13.492;2023-05-24T06:00:27;3.00;;;2.00;;
36211;SDS011;22247;48.586;13.492;2023-05-24T06:02:52;2.58;;;1.90;;
36211;SDS011;22247;48.586;13.492;2023-05-24T06:05:17;2.63;;;1.92;;
36211;SDS011;22247;48.586;13.492;2023-05-24T06:07:42;2.97;;;1.90;;
36211;SDS011;22247;48.586;13.492;2023-05-24T06:10:09;2.22;;;1.75;;
36211;SDS011;22247;48.586;13.492;2023-05-24T06:12:33;3.30;;;1.48;;
36211;SDS011;22247;48.586;13.492;2023-05-24T06:14:58;2.30;;;1.73;;
36211;SDS011;22247;48.586;13.492;2023-05-24T06:17:23;1.98;;;1.45;;
36211;SDS011;22247;48.586;13.492;2023-05-24T06:19:47;3.00;;;1.50;;
36211;SDS011;22247;48.586;13.492;2023-05-24T06:22:13;3.42;;;1.90;;
36211;SDS011;22247;48.586;13.492;2023-05-24T06:24:37;2.55;;;1.77;;
36211;SDS011;22247;48.586;13.492;2023-05-24T06:27:05;1.98;;;1.60;;
36211;SDS011;22247;48.586;13.492;2023-05-24T06:29:29;2.35;;;1.70;;
36211;SDS011;22247;48.586;13.492;2023-05-24T06:31:54;1.95;;;1.63;;
36211;SDS011;22247;48.586;13.492;2023-05-24T06:34:21;1.90;;;1.60;;
36211;SDS011;22247;48.586;13.492;2023-05-24T06:36:46;1.83;;;1.40;;
36211;SDS011;22247;48.586;13.492;2023-05-24T06:39:11;2.20;;;1.80;;
36211;SDS011;22247;48.586;13.492;2023-05-24T06:41:36;1.58;;;1.42;;
36211;SDS011;22247;48.586;13.492;2023-05-24T06:44:01;2.65;;;1.77;;
36211;SDS011;22247;48.586;13.492;2023-05-24T06:46:26;3.78;;;1.52;;
36211;SDS011;22247;48.586;13.492;2023-05-24T06:48:51;4.35;;;1.60;;
36211;SDS011;22247;48.586;13.492;2023-05-24T06:51:20;1.60;;;1.35;;
36211;SDS011;22247;48.586;13.492;2023-05-24T06:53:48;2.20;;;1.52;;
36211;SDS011;22247;48.586;13.492;2023-05-24T06:56:13;2.08;;;1.35;;
36211;SDS011;22247;48.586;13.492;2023-05-24T07:01:02;1.92;;;1.35;;
36211;SDS011;22247;48.586;13.492;2023-05-24T07:03:27;3.38;;;1.58;;
36211;SDS011;22247;48.586;13.492;2023-05-24T07:06:00;1.75;;;1.55;;
36211;SDS011;22247;48.586;13.492;2023-05-24T07:08:24;3.35;;;2.05;;
36211;SDS011;22247;48.586;13.492;2023-05-24T07:13:16;2.78;;;1.88;;
36211;SDS011;22247;48.586;13.492;2023-05-24T07:18:05;2.47;;;1.73;;
36211;SDS011;22247;48.586;13.492;2023-05-24T07:20:30;1.85;;;1.38;;
36211;SDS011;22247;48.586;13.492;2023-05-24T07:22:55;2.58;;;1.48;;
36211;SDS011;22247;48.586;13.492;2023-05-24T07:27:45;3.83;;;1.40;;
36211;SDS011;22247;48.586;13.492;2023-05-24T07:30:10;2.47;;;1.55;;
36211;SDS011;22247;48.586;13.492;2023-05-24T07:32:35;2.10;;;1.60;;
36211;SDS011;22247;48.586;13.492;2023-05-24T07:35:00;3.03;;;1.65;;
36211;SDS011;22247;48.586;13.492;2023-05-24T07:37:25;1.88;;;1.27;;
36211;SDS011;22247;48.586;13.492;2023-05-24T07:39:52;5.93;;;1.42;;
36211;SDS011;22247;48.586;13.492;2023-05-24T07:42:17;2.70;;;1.60;;
36211;SDS011;22247;48.586;13.492;2023-05-24T07:44:41;4.05;;;2.00;;
36211;SDS011;22247;48.586;13.492;2023-05-24T07:47:06;1.85;;;1.42;;
36211;SDS011;22247;48.586;13.492;2023-05-24T07:49:30;2.25;;;1.50;;
36211;SDS011;22247;48.586;13.492;2023-05-24T07:51:55;2.45;;;1.50;;
36211;SDS011;22247;48.586;13.492;2023-05-24T07:54:23;1.95;;;1.70;;
36211;SDS011;22247;48.586;13.492;2023-05-24T07:56:48;2.42;;;1.52;;
36211;SDS011;22247;48.586;13.492;2023-05-24T07:59:13;2.40;;;1.63;;
36211;SDS011;22247;48.586;13.492;2023-05-24T08:01:40;3.00;;;2.08;;
36211;SDS011;22247;48.586;13.492;2023-05-24T08:04:04;2.20;;;1.73;;
36211;SDS011;22247;48.586;13.492;2023-05-24T08:06:32;2.72;;;1.85;;
36211;SDS011;22247;48.586;13.492;2023-05-24T08:08:58;1.95;;;1.50;;
36211;SDS011;22247;48.586;13.492;2023-05-24T08:11:25;3.25;;;1.30;;
36211;SDS011;22247;48.586;13.492;2023-05-24T08:13:50;2.55;;;1.80;;
36211;SDS011;22247;48.586;13.492;2023-05-24T08:16:15;2.00;;;1.80;;
36211;SDS011;22247;48.586;13.492;2023-05-24T08:18:39;2.38;;;1.70;;
36211;SDS011;22247;48.586;13.492;2023-05-24T08:21:04;3.50;;;1.92;;
36211;SDS011;22247;48.586;13.492;2023-05-24T08:23:29;2.55;;;1.92;;
36211;SDS011;22247;48.586;13.492;2023-05-24T08:25:54;1.95;;;1.60;;
36211;SDS011;22247;48.586;13.492;2023-05-24T08:28:19;2.10;;;1.90;;
36211;SDS011;22247;48.586;13.492;2023-05-24T08:30:46;2.20;;;1.75;;
36211;SDS011;22247;48.586;13.492;2023-05-24T08:33:11;3.13;;;1.90;;
36211;SDS011;22247;48.586;13.492;2023-05-24T08:35:36;5.32;;;2.15;;
36211;SDS011;22247;48.586;13.492;2023-05-24T08:38:00;3.53;;;2.10;;
36211;SDS011;22247;48.586;13.492;2023-05-24T08:40:27;2.17;;;1.50;;
36211;SDS011;22247;48.586;13.492;2023-05-24T08:42:52;3.22;;;1.92;;
36211;SDS011;22247;48.586;13.492;2023-05-24T08:45:20;2.28;;;1.77;;
36211;SDS011;22247;48.586;13.492;2023-05-24T08:47:45;5.97;;;2.10;;
36211;SDS011;22247;48.586;13.492;2023-05-24T08:50:11;2.10;;;1.63;;
36211;SDS011;22247;48.586;13.492;2023-05-24T08:52:36;3.28;;;1.90;;
36211;SDS011;22247;48.586;13.492;2023-05-24T08:55:02;2.42;;;2.05;;
36211;SDS011;22247;48.586;13.492;2023-05-24T08:57:28;6.60;;;2.00;;
36211;SDS011;22247;48.586;13.492;2023-05-24T08:59:55;2.33;;;1.60;;
36211;SDS011;22247;48.586;13.492;2023-05-24T09:02:20;2.70;;;1.52;;
36211;SDS011;22247;48.586;13.492;2023-05-24T09:04:45;3.00;;;1.80;;
36211;SDS011;22247;48.586;13.492;2023-05-24T09:07:18;4.03;;;1.88;;
36211;SDS011;22247;48.586;13.492;2023-05-24T09:09:46;2.17;;;1.65;;
36211;SDS011;22247;48.586;13.492;2023-05-24T09:12:19;4.30;;;2.08;;
36211;SDS011;22247;48.586;13.492;2023-05-24T09:14:45;2.85;;;2.05;;
36211;SDS011;22247;48.586;13.492;2023-05-24T09:17:10;2.40;;;1.77;;
36211;SDS011;22247;48.586;13.492;2023-05-24T09:19:38;3.58;;;1.60;;
36211;SDS011;22247;48.586;13.492;2023-05-24T09:22:08;3.20;;;1.80;;
36211;SDS011;22247;48.586;13.492;2023-05-24T09:24:45;2.97;;;1.98;;
36211;SDS011;22247;48.586;13.492;2023-05-24T09:27:16;5.57;;;1.88;;
36211;SDS011;22247;48.586;13.492;2023-05-24T09:29:44;2.65;;;1.88;;
36211;SDS011;22247;48.586;13.492;2023-05-24T09:32:20;2.03;;;1.50;;
36211;SDS011;22247;48.586;13.492;2023-05-24T09:34:51;2.72;;;1.70;;
36211;SDS011;22247;48.586;13.492;2023-05-24T09:37:17;2.53;;;1.80;;
36211;SDS011;22247;48.586;13.492;2023-05-24T09:39:44;3.20;;;1.73;;
36211;SDS011;22247;48.586;13.492;2023-05-24T09:42:14;2.28;;;1.55;;
36211;SDS011;22247;48.586;13.492;2023-05-24T09:44:40;4.55;;;1.60;;
36211;SDS011;22247;48.586;13.492;2023-05-24T09:47:06;3.22;;;2.05;;
36211;SDS011;22247;48.586;13.492;2023-05-24T09:49:32;2.85;;;1.77;;
36211;SDS011;22247;48.586;13.492;2023-05-24T09:52:00;3.35;;;1.70;;
36211;SDS011;22247;48.586;13.492;2023-05-24T09:54:24;2.47;;;1.67;;
36211;SDS011;22247;48.586;13.492;2023-05-24T09:56:52;2.60;;;2.20;;
36211;SDS011;22247;48.586;13.492;2023-05-24T09:59:16;2.53;;;1.83;;
36211;SDS011;22247;48.586;13.492;2023-05-24T10:01:42;3.97;;;1.83;;
36211;SDS011;22247;48.586;13.492;2023-05-24T10:04:06;6.00;;;1.88;;
36211;SDS011;22247;48.586;13.492;2023-05-24T10:06:34;2.97;;;1.58;;
36211;SDS011;22247;48.586;13.492;2023-05-24T10:09:02;4.55;;;1.98;;
36211;SDS011;22247;48.586;13.492;2023-05-24T10:11:34;2.72;;;2.08;;
36211;SDS011;22247;48.586;13.492;2023-05-24T10:14:07;2.58;;;1.73;;
36211;SDS011;22247;48.586;13.492;2023-05-24T10:16:32;1.88;;;1.55;;
36211;SDS011;22247;48.586;13.492;2023-05-24T10:18:59;3.38;;;1.60;;
36211;SDS011;22247;48.586;13.492;2023-05-24T10:21:23;3.17;;;1.80;;
36211;SDS011;22247;48.586;13.492;2023-05-24T10:23:50;2.00;;;1.60;;
36211;SDS011;22247;48.586;13.492;2023-05-24T10:26:20;1.83;;;1.30;;
36211;SDS011;22247;48.586;13.492;2023-05-24T10:28:50;1.90;;;1.50;;
36211;SDS011;22247;48.586;13.492;2023-05-24T10:31:21;2.65;;;1.85;;
36211;SDS011;22247;48.586;13.492;2023-05-24T10:34:06;2.05;;;1.33;;
36211;SDS011;22247;48.586;13.492;2023-05-24T10:36:37;2.45;;;1.58;;
36211;SDS011;22247;48.586;13.492;2023-05-24T10:39:07;3.63;;;2.13;;
36211;SDS011;22247;48.586;13.492;2023-05-24T10:41:38;2.53;;;1.77;;
36211;SDS011;22247;48.586;13.492;2023-05-24T10:44:04;4.40;;;2.15;;
36211;SDS011;22247;48.586;13.492;2023-05-24T10:46:35;3.45;;;1.55;;
36211;SDS011;22247;48.586;13.492;2023-05-24T10:49:01;1.92;;;1.50;;
36211;SDS011;22247;48.586;13.492;2023-05-24T10:51:34;2.78;;;1.88;;
36211;SDS011;22247;48.586;13.492;2023-05-24T10:54:16;2.85;;;1.60;;
36211;SDS011;22247;48.586;13.492;2023-05-24T10:56:49;3.13;;;1.77;;
36211;SDS011;22247;48.586;13.492;2023-05-24T11:02:08;4.45;;;1.42;;
36211;SDS011;22247;48.586;13.492;2023-05-24T11:04:41;2.97;;;1.95;;
36211;SDS011;22247;48.586;13.492;2023-05-24T11:07:12;9.55;;;5.03;;
36211;SDS011;22247;48.586;13.492;2023-05-24T11:09:38;2.92;;;2.05;;
36211;SDS011;22247;48.586;13.492;2023-05-24T11:12:11;5.00;;;2.10;;
36211;SDS011;22247;48.586;13.492;2023-05-24T11:14:39;11.63;;;8.65;;
36211;SDS011;22247;48.586;13.492;2023-05-24T11:17:04;8.30;;;4.38;;
36211;SDS011;22247;48.586;13.492;2023-05-24T11:19:36;7.93;;;5.20;;
36211;SDS011;22247;48.586;13.492;2023-05-24T11:22:15;40.42;;;30.17;;
36211;SDS011;22247;48.586;13.492;2023-05-24T11:24:40;136.65;;;110.25;;
36211;SDS011;22247;48.586;13.492;2023-05-24T11:27:09;60.72;;;42.17;;
36211;SDS011;22247;48.586;13.492;2023-05-24T11:29:44;65.68;;;48.85;;
36211;SDS011;22247;48.586;13.492;2023-05-24T11:32:17;2.80;;;1.90;;
36211;SDS011;22247;48.586;13.492;2023-05-24T11:34:44;2.92;;;2.20;;
36211;SDS011;22247;48.586;13.492;2023-05-24T11:37:10;3.65;;;2.22;;
36211;SDS011;22247;48.586;13.492;2023-05-24T11:39:35;2.50;;;1.60;;
36211;SDS011;22247;48.586;13.492;2023-05-24T11:42:04;4.15;;;1.77;;
36211;SDS011;22247;48.586;13.492;2023-05-24T11:44:30;8.50;;;1.63;;
36211;SDS011;22247;48.586;13.492;2023-05-24T11:47:01;2.60;;;1.58;;
36211;SDS011;22247;48.586;13.492;2023-05-24T11:49:28;3.00;;;1.63;;
36211;SDS011;22247;48.586;13.492;2023-05-24T11:51:54;2.97;;;1.58;;
36211;SDS011;22247;48.586;13.492;2023-05-24T11:54:19;4.10;;;1.90;;
36211;SDS011;22247;48.586;13.492;2023-05-24T11:56:46;3.13;;;1.42;;
36211;SDS011;22247;48.586;13.492;2023-05-24T11:59:15;3.10;;;1.77;;
36211;SDS011;22247;48.586;13.492;2023-05-24T12:01:43;4.30;;;1.88;;
36211;SDS011;22247;48.586;13.492;2023-05-24T12:04:07;2.63;;;1.58;;
36211;SDS011;22247;48.586;13.492;2023-05-24T12:06:39;3.08;;;1.40;;
36211;SDS011;22247;48.586;13.492;2023-05-24T12:09:06;2.97;;;1.65;;
36211;SDS011;22247;48.586;13.492;2023-05-24T12:11:32;3.22;;;1.80;;
36211;SDS011;22247;48.586;13.492;2023-05-24T12:13:57;4.28;;;2.08;;
36211;SDS011;22247;48.586;13.492;2023-05-24T12:16:22;2.45;;;1.50;;
36211;SDS011;22247;48.586;13.492;2023-05-24T12:18:50;2.00;;;1.30;;
36211;SDS011;22247;48.586;13.492;2023-05-24T12:21:15;2.50;;;1.63;;
36211;SDS011;22247;48.586;13.492;2023-05-24T12:23:40;3.20;;;1.50;;
36211;SDS011;22247;48.586;13.492;2023-05-24T12:26:04;5.20;;;1.60;;
36211;SDS011;22247;48.586;13.492;2023-05-24T12:28:32;3.22;;;1.48;;
36211;SDS011;22247;48.586;13.492;2023-05-24T12:31:02;2.17;;;1.55;;
36211;SDS011;22247;48.586;13.492;2023-05-24T12:33:28;3.75;;;1.70;;
36211;SDS011;22247;48.586;13.492;2023-05-24T12:35:52;3.55;;;1.77;;
36211;SDS011;22247;48.586;13.492;2023-05-24T12:38:18;3.35;;;1.58;;
36211;SDS011;22247;48.586;13.492;2023-05-24T12:40:50;3.55;;;1.63;;
36211;SDS011;22247;48.586;13.492;2023-05-24T12:43:17;2.38;;;1.60;;
36211;SDS011;22247;48.586;13.492;2023-05-24T12:45:43;2.47;;;1.85;;
36211;SDS011;22247;48.586;13.492;2023-05-24T12:48:08;2.28;;;1.60;;
36211;SDS011;22247;48.586;13.492;2023-05-24T12:50:32;5.03;;;1.90;;
36211;SDS011;22247;48.586;13.492;2023-05-24T12:52:57;2.30;;;1.80;;
36211;SDS011;22247;48.586;13.492;2023-05-24T12:55:25;2.83;;;1.85;;
36211;SDS011;22247;48.586;13.492;2023-05-24T12:57:51;10.27;;;2.42;;
36211;SDS011;22247;48.586;13.492;2023-05-24T13:00:17;5.70;;;2.03;;
36211;SDS011;22247;48.586;13.492;2023-05-24T13:02:46;9.57;;;2.40;;
36211;SDS011;22247;48.586;13.492;2023-05-24T13:05:12;4.25;;;2.15;;
36211;SDS011;22247;48.586;13.492;2023-05-24T13:07:36;5.50;;;2.83;;
36211;SDS011;22247;48.586;13.492;2023-05-24T13:10:06;3.83;;;2.60;;
36211;SDS011;22247;48.586;13.492;2023-05-24T13:12:31;4.72;;;2.80;;
36211;SDS011;22247;48.586;13.492;2023-05-24T13:14:59;3.83;;;2.72;;
36211;SDS011;22247;48.586;13.492;2023-05-24T13:17:23;3.20;;;2.17;;
36211;SDS011;22247;48.586;13.492;2023-05-24T13:19:48;6.25;;;2.58;;
36211;SDS011;22247;48.586;13.492;2023-05-24T13:22:13;6.13;;;2.78;;
36211;SDS011;22247;48.586;13.492;2023-05-24T13:24:38;7.30;;;2.88;;
36211;SDS011;22247;48.586;13.492;2023-05-24T13:27:03;7.30;;;2.55;;
36211;SDS011;22247;48.586;13.492;2023-05-24T13:29:28;4.60;;;2.67;;
36211;SDS011;22247;48.586;13.492;2023-05-24T13:31:52;7.68;;;3.10;;
36211;SDS011;22247;48.586;13.492;2023-05-24T13:34:17;4.63;;;2.13;;
36211;SDS011;22247;48.586;13.492;2023-05-24T13:36:44;4.97;;;2.80;;
36211;SDS011;22247;48.586;13.492;2023-05-24T13:39:14;5.85;;;2.70;;
36211;SDS011;22247;48.586;13.492;2023-05-24T13:41:48;6.50;;;2.55;;
36211;SDS011;22247;48.586;13.492;2023-05-24T13:44:13;4.38;;;2.30;;
36211;SDS011;22247;48.586;13.492;2023-05-24T13:46:39;6.13;;;2.80;;
36211;SDS011;22247;48.586;13.492;2023-05-24T13:49:04;7.88;;;3.28;;
36211;SDS011;22247;48.586;13.492;2023-05-24T13:51:29;10.82;;;3.45;;
36211;SDS011;22247;48.586;13.492;2023-05-24T13:53:54;7.20;;;3.40;;
36211;SDS011;22247;48.586;13.492;2023-05-24T13:56:19;8.55;;;3.67;;
36211;SDS011;22247;48.586;13.492;2023-05-24T13:58:45;16.02;;;3.70;;
36211;SDS011;22247;48.586;13.492;2023-05-24T14:01:09;12.40;;;5.10;;
36211;SDS011;22247;48.586;13.492;2023-05-24T14:03:34;11.23;;;3.67;;
36211;SDS011;22247;48.586;13.492;2023-05-24T14:06:03;10.25;;;4.45;;
36211;SDS011;22247;48.586;13.492;2023-05-24T14:08:29;9.23;;;4.85;;
36211;SDS011;22247;48.586;13.492;2023-05-24T14:13:20;11.90;;;4.78;;
36211;SDS011;22247;48.586;13.492;2023-05-24T14:15:45;12.60;;;5.10;;
36211;SDS011;22247;48.586;13.492;2023-05-24T14:18:12;11.30;;;5.15;;
36211;SDS011;22247;48.586;13.492;2023-05-24T14:23:03;10.02;;;5.47;;
36211;SDS011;22247;48.586;13.492;2023-05-24T14:25:28;14.25;;;6.00;;
36211;SDS011;22247;48.586;13.492;2023-05-24T14:30:17;12.60;;;6.10;;
36211;SDS011;22247;48.586;13.492;2023-05-24T14:32:41;16.15;;;6.15;;
36211;SDS011;22247;48.586;13.492;2023-05-24T14:35:06;10.57;;;6.03;;
36211;SDS011;22247;48.586;13.492;2023-05-24T14:37:34;10.80;;;5.32;;
36211;SDS011;22247;48.586;13.492;2023-05-24T14:42:23;13.45;;;6.30;;
36211;SDS011;22247;48.586;13.492;2023-05-24T14:47:12;11.82;;;5.22;;
36211;SDS011;22247;48.586;13.492;2023-05-24T14:49:37;9.75;;;6.10;;
36211;SDS011;22247;48.586;13.492;2023-05-24T14:52:04;13.30;;;5.60;;
36211;SDS011;22247;48.586;13.492;2023-05-24T14:56:53;13.40;;;5.55;;
36211;SDS011;22247;48.586;13.492;2023-05-24T14:59:20;13.65;;;5.93;;
36211;SDS011;22247;48.586;13.492;2023-05-24T15:01:44;8.65;;;5.20;;
36211;SDS011;22247;48.586;13.492;2023-05-24T15:06:33;13.57;;;5.75;;
36211;SDS011;22247;48.586;13.492;2023-05-24T15:09:00;12.23;;;6.50;;
36211;SDS011;22247;48.586;13.492;2023-05-24T15:11:29;11.80;;;5.82;;
36211;SDS011;22247;48.586;13.492;2023-05-24T15:13:56;10.88;;;5.53;;
36211;SDS011;22247;48.586;13.492;2023-05-24T15:16:22;13.45;;;5.70;;
36211;SDS011;22247;48.586;13.492;2023-05-24T15:21:11;11.97;;;6.10;;
36211;SDS011;22247;48.586;13.492;2023-05-24T15:23:36;10.43;;;5.22;;
36211;SDS011;22247;48.586;13.492;2023-05-24T15:26:02;12.07;;;5.07;;
36211;SDS011;22247;48.586;13.492;2023-05-24T15:28:29;7.78;;;4.75;;
36211;SDS011;22247;48.586;13.492;2023-05-24T15:30:56;8.57;;;5.22;;
36211;SDS011;22247;48.586;13.492;2023-05-24T15:33:24;10.73;;;5.00;;
36211;SDS011;22247;48.586;13.492;2023-05-24T15:35:51;5.95;;;4.10;;
36211;SDS011;22247;48.586;13.492;2023-05-24T15:40:41;12.15;;;4.55;;
36211;SDS011;22247;48.586;13.492;2023-05-24T15:43:09;8.32;;;4.75;;
36211;SDS011;22247;48.586;13.492;2023-05-24T15:48:01;9.70;;;4.80;;
36211;SDS011;22247;48.586;13.492;2023-05-24T15:50:31;10.55;;;4.95;;
36211;SDS011;22247;48.586;13.492;2023-05-24T15:52:56;7.93;;;4.05;;
36211;SDS011;22247;48.586;13.492;2023-05-24T15:55:23;9.07;;;4.63;;
36211;SDS011;22247;48.586;13.492;2023-05-24T16:00:13;10.07;;;4.63;;
36211;SDS011;22247;48.586;13.492;2023-05-24T16:02:38;7.32;;;4.40;;
36211;SDS011;22247;48.586;13.492;2023-05-24T16:07:27;8.23;;;5.20;;
36211;SDS011;22247;48.586;13.492;2023-05-24T16:09:51;7.93;;;4.60;;
36211;SDS011;22247;48.586;13.492;2023-05-24T16:12:19;6.75;;;4.70;;
36211;SDS011;22247;48.586;13.492;2023-05-24T16:14:44;6.35;;;4.40;;
36211;SDS011;22247;48.586;13.492;2023-05-24T16:17:11;6.80;;;4.38;;
36211;SDS011;22247;48.586;13.492;2023-05-24T16:22:02;7.40;;;4.38;;
36211;SDS011;22247;48.586;13.492;2023-05-24T16:26:52;9.73;;;5.07;;
36211;SDS011;22247;48.586;13.492;2023-05-24T16:29:19;10.60;;;5.00;;
36211;SDS011;22247;48.586;13.492;2023-05-24T16:34:09;10.80;;;5.57;;
36211;SDS011;22247;48.586;13.492;2023-05-24T16:36:36;7.78;;;4.93;;
36211;SDS011;22247;48.586;13.492;2023-05-24T16:41:25;11.50;;;5.22;;
36211;SDS011;22247;48.586;13.492;2023-05-24T16:43:52;10.90;;;5.50;;
36211;SDS011;22247;48.586;13.492;2023-05-24T16:46:19;10.00;;;5.88;;
36211;SDS011;22247;48.586;13.492;2023-05-24T16:51:08;10.40;;;6.13;;
36211;SDS011;22247;48.586;13.492;2023-05-24T16:55:58;8.32;;;5.47;;
36211;SDS011;22247;48.586;13.492;2023-05-24T17:00:47;7.53;;;4.80;;
36211;SDS011;22247;48.586;13.492;2023-05-24T17:05:37;8.27;;;4.35;;
36211;SDS011;22247;48.586;13.492;2023-05-24T17:08:05;6.60;;;4.80;;
36211;SDS011;22247;48.586;13.492;2023-05-24T17:10:29;10.20;;;4.28;;
36211;SDS011;22247;48.586;13.492;2023-05-24T17:15:19;7.93;;;4.75;;
36211;SDS011;22247;48.586;13.492;2023-05-24T17:20:08;16.73;;;5.38;;
36211;SDS011;22247;48.586;13.492;2023-05-24T17:22:36;7.50;;;4.90;;
36211;SDS011;22247;48.586;13.492;2023-05-24T17:27:27;11.50;;;4.45;;
36211;SDS011;22247;48.586;13.492;2023-05-24T17:32:16;6.45;;;4.65;;
36211;SDS011;22247;48.586;13.492;2023-05-24T17:37:05;6.50;;;4.20;;
36211;SDS011;22247;48.586;13.492;2023-05-24T17:41:54;7.65;;;4.70;;
36211;SDS011;22247;48.586;13.492;2023-05-24T17:46:44;7.28;;;4.90;;
36211;SDS011;22247;48.586;13.492;2023-05-24T17:51:35;6.60;;;4.20;;
36211;SDS011;22247;48.586;13.492;2023-05-24T17:54:02;6.32;;;4.30;;
36211;SDS011;22247;48.586;13.492;2023-05-24T17:58:53;9.73;;;4.55;;
36211;SDS011;22247;48.586;13.492;2023-05-24T18:01:18;9.00;;;5.13;;
36211;SDS011;22247;48.586;13.492;2023-05-24T18:06:07;6.45;;;4.90;;